createdAt,value
2019-04-22T00:00:11.169Z,90.00
2019-04-22T00:01:13.776Z,90.00
2019-04-22T00:02:12.937Z,90.00
2019-04-22T00:03:14.214Z,90.00
2019-04-22T00:04:17.399Z,90.00
2019-04-22T00:05:20.238Z,90.00
2019-04-22T00:06:34.116Z,90.00
2019-04-22T00:07:35.858Z,90.00
2019-04-22T00:09:41.843Z,90.00
2019-04-22T00:10:41.999Z,90.00
2019-04-22T00:11:28.863Z,90.00
2019-04-22T00:12:28.015Z,90.00
2019-04-22T00:14:30.890Z,90.00
2019-04-22T00:15:34.011Z,90.00
2019-04-22T00:16:34.295Z,90.00
2019-04-22T00:17:30.510Z,90.00
2019-04-22T00:18:48.006Z,90.00
2019-04-22T00:19:30.365Z,90.00
2019-04-22T00:20:35.417Z,90.00
2019-04-22T00:22:28.873Z,90.00
2019-04-22T00:23:24.680Z,90.00
2019-04-22T00:24:39.105Z,90.00
2019-04-22T00:27:42.440Z,90.00
2019-04-22T00:28:36.663Z,90.00
2019-04-22T00:29:53.875Z,90.00
2019-04-22T00:30:34.298Z,90.00
2019-04-22T00:31:33.204Z,90.00
2019-04-22T00:33:32.314Z,90.00
2019-04-22T00:34:29.407Z,90.00
2019-04-22T00:35:38.316Z,90.00
2019-04-22T00:36:35.030Z,90.00
2019-04-22T00:38:38.743Z,90.00
2019-04-22T00:39:33.731Z,90.00
2019-04-22T00:41:40.545Z,90.00
2019-04-22T00:44:39.077Z,85.59
2019-04-22T00:46:38.303Z,315.00
2019-04-22T00:48:35.959Z,315.00
2019-04-22T00:50:09.276Z,315.00
2019-04-22T00:50:37.433Z,315.00
2019-04-22T00:52:34.391Z,315.00
2019-04-22T00:53:35.256Z,315.00
2019-04-22T00:54:43.970Z,315.00
2019-04-22T00:55:38.089Z,315.00
2019-04-22T00:56:28.385Z,315.00
2019-04-22T00:57:32.448Z,315.00
2019-04-22T00:58:36.771Z,315.00
2019-04-22T00:59:32.971Z,315.00
2019-04-22T01:01:23.883Z,315.00
2019-04-22T01:03:43.726Z,315.00
2019-04-22T01:04:44.215Z,315.00
2019-04-22T01:05:30.225Z,315.00
2019-04-22T01:06:35.900Z,315.00
2019-04-22T01:08:43.506Z,315.00
2019-04-22T01:09:43.234Z,315.00
2019-04-22T01:10:39.023Z,315.00
2019-04-22T01:11:34.966Z,315.00
2019-04-22T01:12:28.561Z,315.00
2019-04-22T01:13:31.376Z,315.00
2019-04-22T01:14:38.252Z,315.00
2019-04-22T01:16:35.942Z,315.00
2019-04-22T01:18:32.604Z,315.00
2019-04-22T01:19:38.951Z,315.00
2019-04-22T01:21:00.846Z,315.00
2019-04-22T01:22:28.543Z,315.00
2019-04-22T01:23:34.544Z,315.00
2019-04-22T01:24:32.793Z,315.00
2019-04-22T01:25:30.965Z,315.00
2019-04-22T01:26:29.917Z,315.00
2019-04-22T01:27:26.318Z,315.00
2019-04-22T01:28:27.295Z,33.05
2019-04-22T01:29:22.626Z,45.00
2019-04-22T01:30:21.171Z,45.00
2019-04-22T01:31:17.883Z,45.00
2019-04-22T01:32:21.037Z,45.00
2019-04-22T01:33:21.068Z,45.00
2019-04-22T01:34:27.875Z,45.00
2019-04-22T01:35:20.953Z,45.00
2019-04-22T01:36:30.113Z,1.51
2019-04-22T01:37:31.634Z,0.00
2019-04-22T01:38:34.962Z,0.00
2019-04-22T01:39:39.022Z,0.00
2019-04-22T01:40:38.964Z,0.00
2019-04-22T01:41:41.824Z,0.00
2019-04-22T01:42:41.206Z,0.00
2019-04-22T01:43:41.003Z,0.00
2019-04-22T01:45:26.734Z,0.00
2019-04-22T01:46:41.830Z,0.00
2019-04-22T01:47:36.702Z,35.17
2019-04-22T01:48:40.580Z,135.00
2019-04-22T01:49:27.609Z,135.00
2019-04-22T01:50:26.310Z,135.00
2019-04-22T01:51:45.220Z,135.00
2019-04-22T01:52:41.620Z,135.00
2019-04-22T01:53:43.280Z,135.00
2019-04-22T01:54:45.421Z,135.00
2019-04-22T01:55:38.082Z,135.00
2019-04-22T01:56:27.367Z,135.00
2019-04-22T01:57:34.990Z,135.00
2019-04-22T01:59:31.900Z,90.00
2019-04-22T02:00:36.003Z,90.00
2019-04-22T02:01:30.747Z,90.00
2019-04-22T02:02:30.478Z,90.00
2019-04-22T02:03:44.409Z,90.00
2019-04-22T02:04:39.734Z,90.00
2019-04-22T02:05:35.766Z,60.12
2019-04-22T02:06:30.288Z,0.00
2019-04-22T02:07:34.344Z,0.00
2019-04-22T02:08:31.393Z,0.00
2019-04-22T02:10:40.375Z,121.35
2019-04-22T02:12:29.848Z,180.00
2019-04-22T02:13:38.188Z,180.00
2019-04-22T02:14:39.336Z,180.00
2019-04-22T02:15:46.511Z,180.00
2019-04-22T02:16:27.614Z,180.00
2019-04-22T02:17:38.293Z,180.00
2019-04-22T02:18:41.995Z,180.00
2019-04-22T02:19:41.420Z,180.00
2019-04-22T02:20:35.899Z,180.00
2019-04-22T02:21:38.212Z,180.00
2019-04-22T02:22:52.320Z,291.00
2019-04-22T02:24:42.506Z,315.00
2019-04-22T02:25:42.709Z,315.00
2019-04-22T02:26:31.395Z,315.00
2019-04-22T02:27:39.006Z,315.00
2019-04-22T02:30:54.272Z,315.00
2019-04-22T02:31:44.306Z,315.00
2019-04-22T02:34:01.256Z,315.00
2019-04-22T02:34:37.461Z,315.00
2019-04-22T02:36:33.906Z,315.00
2019-04-22T02:38:51.851Z,315.00
2019-04-22T02:40:58.450Z,315.00
2019-04-22T02:41:31.187Z,315.00
2019-04-22T02:42:35.247Z,315.00
2019-04-22T02:43:51.879Z,315.00
2019-04-22T02:44:28.725Z,315.00
2019-04-22T02:45:52.590Z,315.00
2019-04-22T02:46:56.792Z,315.00
2019-04-22T02:47:27.634Z,315.00
2019-04-22T02:49:37.360Z,315.00
2019-04-22T02:50:43.901Z,2.70
2019-04-22T02:51:32.877Z,90.00
2019-04-22T02:52:34.779Z,90.00
2019-04-22T02:54:15.147Z,90.00
2019-04-22T02:54:51.016Z,90.00
2019-04-22T02:55:32.369Z,90.00
2019-04-22T02:56:38.105Z,90.00
2019-04-22T02:57:45.077Z,90.00
2019-04-22T02:59:39.860Z,90.00
2019-04-22T03:00:46.669Z,90.00
2019-04-22T03:02:50.644Z,90.00
2019-04-22T03:04:41.453Z,90.00
2019-04-22T03:05:51.090Z,90.00
2019-04-22T03:06:38.562Z,90.00
2019-04-22T03:07:40.633Z,90.00
2019-04-22T03:10:37.176Z,90.00
2019-04-22T03:11:24.714Z,356.92
2019-04-22T03:12:28.456Z,315.00
2019-04-22T03:13:38.266Z,315.00
2019-04-22T03:14:40.422Z,315.00
2019-04-22T03:15:38.044Z,315.00
2019-04-22T03:16:31.953Z,315.00
2019-04-22T03:17:34.363Z,315.00
2019-04-22T03:20:33.530Z,315.00
2019-04-22T03:21:38.060Z,315.00
2019-04-22T03:22:28.684Z,315.00
2019-04-22T03:23:58.619Z,315.00
2019-04-22T03:24:36.285Z,315.00
2019-04-22T03:26:00.363Z,315.00
2019-04-22T03:26:38.889Z,315.00
2019-04-22T03:28:44.421Z,315.00
2019-04-22T03:30:00.911Z,315.00
2019-04-22T03:33:43.607Z,315.00
2019-04-22T03:36:05.971Z,315.00
2019-04-22T03:37:02.480Z,315.00
2019-04-22T03:40:46.661Z,315.00
2019-04-22T03:41:57.319Z,315.00
2019-04-22T03:42:52.081Z,315.00
2019-04-22T03:46:50.962Z,315.00
2019-04-22T03:47:48.050Z,315.00
2019-04-22T03:48:45.856Z,315.00
2019-04-22T03:49:57.841Z,315.00
2019-04-22T03:50:28.031Z,315.00
2019-04-22T03:52:30.969Z,315.00
2019-04-22T03:53:32.659Z,315.00
2019-04-22T03:54:53.883Z,315.00
2019-04-22T03:57:18.449Z,315.00
2019-04-22T03:57:50.437Z,315.00
2019-04-22T03:58:49.556Z,315.00
2019-04-22T03:59:48.094Z,315.00
2019-04-22T04:00:47.811Z,315.00
2019-04-22T04:01:37.055Z,315.00
2019-04-22T04:02:45.723Z,315.00
2019-04-22T04:03:36.318Z,315.00
2019-04-22T04:04:43.586Z,315.00
2019-04-22T04:07:47.482Z,315.00
2019-04-22T04:08:26.368Z,315.00
2019-04-22T04:10:40.097Z,315.00
2019-04-22T04:12:53.950Z,291.03
2019-04-22T04:13:37.403Z,315.00
2019-04-22T04:15:29.906Z,315.00
2019-04-22T04:16:52.122Z,315.00
2019-04-22T04:18:46.595Z,315.00
2019-04-22T04:20:44.779Z,315.00
2019-04-22T04:21:41.322Z,315.00
2019-04-22T04:24:53.809Z,315.00
2019-04-22T04:27:50.860Z,90.00
2019-04-22T04:28:39.796Z,90.00
2019-04-22T04:29:58.079Z,90.00
2019-04-22T04:30:31.231Z,90.00
2019-04-22T04:35:07.685Z,90.00
2019-04-22T04:37:52.502Z,90.00
2019-04-22T04:38:46.418Z,90.00
2019-04-22T04:39:53.454Z,90.00
2019-04-22T04:40:41.972Z,90.00
2019-04-22T04:41:57.440Z,90.00
2019-04-22T04:42:46.448Z,90.00
2019-04-22T04:44:59.239Z,90.00
2019-04-22T04:45:44.884Z,90.00
2019-04-22T04:47:49.345Z,90.00
2019-04-22T04:48:56.173Z,90.00
2019-04-22T04:49:37.451Z,35.61
2019-04-22T04:50:34.339Z,0.00
2019-04-22T04:51:33.252Z,0.00
2019-04-22T04:53:02.614Z,0.00
2019-04-22T04:54:53.844Z,0.00
2019-04-22T04:55:35.044Z,0.00
2019-04-22T04:56:42.441Z,0.00
2019-04-22T04:58:55.853Z,0.00
2019-04-22T05:00:10.860Z,0.00
2019-04-22T05:00:57.707Z,0.00
2019-04-22T05:01:45.084Z,0.00
2019-04-22T05:03:49.326Z,0.00
2019-04-22T05:05:45.654Z,0.00
2019-04-22T05:07:36.788Z,0.00
2019-04-22T05:09:01.485Z,0.00
2019-04-22T05:09:34.640Z,0.00
2019-04-22T05:10:47.936Z,0.00
2019-04-22T05:11:42.988Z,0.00
2019-04-22T05:12:53.091Z,0.00
2019-04-22T05:13:52.857Z,0.00
2019-04-22T05:15:55.369Z,0.00
2019-04-22T05:17:35.177Z,0.00
2019-04-22T05:18:44.274Z,0.00
2019-04-22T05:19:26.553Z,0.00
2019-04-22T05:21:22.412Z,0.00
2019-04-22T05:23:45.599Z,0.00
2019-04-22T05:24:28.268Z,0.00
2019-04-22T05:25:36.845Z,0.00
2019-04-22T05:26:40.033Z,0.00
2019-04-22T05:27:41.198Z,0.00
2019-04-22T05:28:35.057Z,0.00
2019-04-22T05:29:54.162Z,0.00
2019-04-22T05:30:26.755Z,0.00
2019-04-22T05:31:33.980Z,316.94
2019-04-22T05:33:34.818Z,225.00
2019-04-22T05:34:36.562Z,255.99
2019-04-22T05:35:37.828Z,271.14
2019-04-22T05:36:28.247Z,271.97
2019-04-22T05:37:31.007Z,298.81
2019-04-22T05:39:28.451Z,315.00
2019-04-22T05:40:28.239Z,315.00
2019-04-22T05:41:32.281Z,277.91
2019-04-22T05:42:32.169Z,274.78
2019-04-22T05:43:27.369Z,270.00
2019-04-22T05:44:29.548Z,270.00
2019-04-22T05:45:31.457Z,274.85
2019-04-22T05:46:34.535Z,273.04
2019-04-22T05:47:39.321Z,271.27
2019-04-22T05:49:31.183Z,271.79
2019-04-22T05:50:24.542Z,279.94
2019-04-22T05:51:38.522Z,270.54
2019-04-22T05:52:36.481Z,278.03
2019-04-22T05:53:32.395Z,270.00
2019-04-22T05:54:27.870Z,273.70
2019-04-22T05:55:30.600Z,273.03
2019-04-22T05:56:38.655Z,270.00
2019-04-22T05:57:24.738Z,283.46
2019-04-22T05:58:38.220Z,268.40
2019-04-22T05:59:39.552Z,276.89
2019-04-22T06:01:06.581Z,270.00
2019-04-22T06:01:48.124Z,270.00
2019-04-22T06:02:47.581Z,270.38
2019-04-22T06:03:37.907Z,268.75
2019-04-22T06:04:29.625Z,271.28
2019-04-22T06:05:34.351Z,270.00
2019-04-22T06:06:22.440Z,270.00
2019-04-22T06:07:33.724Z,288.65
2019-04-22T06:08:41.600Z,270.51
2019-04-22T06:09:32.649Z,239.24
2019-04-22T06:10:39.835Z,269.92
2019-04-22T06:11:28.419Z,273.59
2019-04-22T06:12:20.949Z,267.25
2019-04-22T06:13:33.047Z,271.76
2019-04-22T06:14:31.340Z,261.45
2019-04-22T06:16:38.170Z,180.00
2019-04-22T06:17:43.137Z,240.38
2019-04-22T06:18:33.500Z,287.92
2019-04-22T06:19:24.800Z,288.88
2019-04-22T06:20:32.739Z,315.00
2019-04-22T06:22:43.307Z,0.00
2019-04-22T06:23:44.073Z,0.00
2019-04-22T06:24:38.553Z,332.29
2019-04-22T06:26:48.926Z,90.00
2019-04-22T06:27:30.479Z,90.00
2019-04-22T06:28:41.409Z,90.00
2019-04-22T06:29:25.053Z,103.73
2019-04-22T06:30:29.148Z,180.00
2019-04-22T06:31:54.452Z,180.00
2019-04-22T06:33:31.995Z,180.00
2019-04-22T06:34:40.407Z,180.00
2019-04-22T06:35:32.495Z,115.53
2019-04-22T06:36:29.487Z,90.00
2019-04-22T06:37:35.053Z,90.00
2019-04-22T06:39:36.916Z,108.22
2019-04-22T06:42:28.472Z,264.36
2019-04-22T06:43:29.137Z,302.36
2019-04-22T06:44:38.904Z,315.00
2019-04-22T06:45:33.772Z,315.00
2019-04-22T06:46:30.101Z,315.00
2019-04-22T06:47:52.696Z,315.00
2019-04-22T06:49:35.846Z,336.73
2019-04-22T06:50:30.262Z,45.00
2019-04-22T06:52:35.014Z,45.00
2019-04-22T06:53:35.961Z,45.00
2019-04-22T06:55:33.016Z,45.00
2019-04-22T06:56:35.205Z,45.00
2019-04-22T06:57:39.450Z,45.00
2019-04-22T06:58:36.592Z,45.00
2019-04-22T06:59:36.373Z,45.00
2019-04-22T07:00:38.133Z,45.00
2019-04-22T07:02:46.453Z,45.00
2019-04-22T07:03:42.779Z,67.43
2019-04-22T07:04:33.680Z,93.68
2019-04-22T07:05:28.675Z,104.97
2019-04-22T07:06:42.345Z,90.00
2019-04-22T07:07:39.988Z,90.00
2019-04-22T07:09:07.825Z,90.00
2019-04-22T07:09:43.498Z,90.00
2019-04-22T07:12:31.375Z,102.53
2019-04-22T07:13:27.468Z,135.00
2019-04-22T07:14:35.632Z,131.53
2019-04-22T07:15:46.419Z,135.59
2019-04-22T07:16:37.877Z,107.89
2019-04-22T07:17:45.922Z,94.12
2019-04-22T07:18:35.951Z,92.64
2019-04-22T07:19:28.863Z,119.84
2019-04-22T07:20:36.749Z,132.76
2019-04-22T07:21:37.630Z,134.42
2019-04-22T07:22:38.942Z,94.90
2019-04-22T07:24:35.594Z,103.72
2019-04-22T07:25:35.047Z,106.35
2019-04-22T07:27:34.247Z,129.78
2019-04-22T07:28:29.122Z,135.00
2019-04-22T07:29:39.246Z,138.27
2019-04-22T07:30:28.017Z,182.05
2019-04-22T07:31:34.391Z,332.29
2019-04-22T07:32:58.066Z,135.00
2019-04-22T07:33:39.314Z,127.92
2019-04-22T07:34:27.740Z,196.02
2019-04-22T07:38:31.360Z,90.26
2019-04-22T07:39:35.476Z,90.00
2019-04-22T07:40:40.345Z,100.82
2019-04-22T07:41:41.113Z,112.55
2019-04-22T07:43:55.719Z,90.02
2019-04-22T07:44:31.266Z,135.00
2019-04-22T07:45:36.256Z,136.71
2019-04-22T07:46:26.358Z,180.00
2019-04-22T07:47:40.915Z,174.71
2019-04-22T07:48:43.319Z,213.53
2019-04-22T07:49:39.028Z,180.00
2019-04-22T07:52:35.398Z,123.04
2019-04-22T07:53:33.572Z,108.20
2019-04-22T07:54:25.895Z,275.40
2019-04-22T07:57:28.733Z,111.57
2019-04-22T07:59:28.353Z,103.94
2019-04-22T08:01:26.856Z,140.70
2019-04-22T08:02:37.882Z,115.30
2019-04-22T08:03:46.753Z,132.05
2019-04-22T08:04:34.653Z,119.37
2019-04-22T08:06:34.647Z,167.68
2019-04-22T08:07:38.356Z,75.94
2019-04-22T08:08:38.842Z,34.87
2019-04-22T08:11:42.321Z,135.00
2019-04-22T08:12:38.614Z,107.95
2019-04-22T08:13:38.537Z,132.14
2019-04-22T08:14:42.258Z,112.77
2019-04-22T08:15:38.691Z,96.64
2019-04-22T08:16:35.047Z,134.41
2019-04-22T08:18:35.901Z,135.00
2019-04-22T08:19:33.133Z,135.00
2019-04-22T08:20:31.915Z,156.85
2019-04-22T08:21:44.377Z,237.84
2019-04-22T08:22:33.964Z,291.68
2019-04-22T08:23:31.330Z,121.23
2019-04-22T08:25:38.835Z,90.69
2019-04-22T08:26:41.178Z,90.00
2019-04-22T08:27:30.176Z,90.00
2019-04-22T08:28:39.302Z,116.46
2019-04-22T08:29:37.096Z,95.06
2019-04-22T08:33:35.450Z,107.93
2019-04-22T08:34:38.892Z,142.79
2019-04-22T08:35:52.299Z,132.61
2019-04-22T08:36:40.964Z,169.25
2019-04-22T08:37:48.066Z,131.74
2019-04-22T08:38:37.611Z,46.29
2019-04-22T08:40:43.122Z,172.60
2019-04-22T08:41:34.336Z,141.81
2019-04-22T08:42:36.090Z,188.44
2019-04-22T08:43:32.969Z,248.92
2019-04-22T08:45:39.006Z,309.45
2019-04-22T08:46:40.970Z,107.70
2019-04-22T08:48:36.475Z,115.61
2019-04-22T08:49:44.483Z,272.93
2019-04-22T08:50:29.521Z,220.78
2019-04-22T08:52:27.574Z,322.32
2019-04-22T08:53:45.421Z,96.56
2019-04-22T08:56:39.786Z,180.00
2019-04-22T08:57:55.553Z,243.73
2019-04-22T08:58:28.021Z,317.75
2019-04-22T08:59:22.123Z,48.86
2019-04-22T09:00:34.223Z,120.31
2019-04-22T09:02:39.949Z,295.38
2019-04-22T09:03:40.049Z,308.05
2019-04-22T09:04:30.551Z,303.42
2019-04-22T09:05:48.598Z,270.41
2019-04-22T09:06:49.454Z,263.95
2019-04-22T09:08:34.069Z,144.55
2019-04-22T09:10:37.952Z,129.97
2019-04-22T09:11:33.758Z,149.37
2019-04-22T09:12:51.755Z,143.07
2019-04-22T09:13:31.762Z,172.30
2019-04-22T09:14:40.576Z,141.00
2019-04-22T09:15:34.529Z,115.35
2019-04-22T09:16:39.391Z,79.62
2019-04-22T09:17:35.113Z,24.08
2019-04-22T09:18:28.518Z,288.53
2019-04-22T09:19:24.068Z,133.44
2019-04-22T09:21:38.952Z,82.45
2019-04-22T09:22:39.422Z,243.78
2019-04-22T09:23:30.209Z,272.75
2019-04-22T09:24:30.353Z,123.27
2019-04-22T09:25:36.032Z,144.74
2019-04-22T09:26:30.711Z,159.02
2019-04-22T09:27:41.245Z,104.78
2019-04-22T09:28:37.747Z,91.19
2019-04-22T09:30:43.308Z,323.17
2019-04-22T09:31:37.243Z,110.71
2019-04-22T09:32:38.875Z,172.05
2019-04-22T09:33:30.331Z,102.29
2019-04-22T09:34:41.700Z,131.75
2019-04-22T09:35:38.682Z,64.96
2019-04-22T09:36:29.768Z,25.87
2019-04-22T09:37:39.173Z,105.91
2019-04-22T09:38:38.193Z,116.91
2019-04-22T09:39:29.403Z,104.81
2019-04-22T09:40:37.042Z,81.75
2019-04-22T09:41:41.267Z,84.22
2019-04-22T09:42:39.778Z,106.87
2019-04-22T09:44:34.773Z,172.27
2019-04-22T09:45:41.820Z,153.68
2019-04-22T09:46:45.441Z,114.83
2019-04-22T09:47:40.065Z,121.29
2019-04-22T09:48:33.188Z,114.58
2019-04-22T09:50:29.360Z,195.82
2019-04-22T09:51:37.429Z,152.67
2019-04-22T09:52:28.010Z,120.32
2019-04-22T09:55:29.867Z,151.15
2019-04-22T09:56:41.832Z,141.52
2019-04-22T09:57:24.485Z,283.92
2019-04-22T09:58:39.805Z,117.59
2019-04-22T09:59:36.723Z,122.67
2019-04-22T10:00:37.560Z,293.15
2019-04-22T10:01:38.463Z,298.45
2019-04-22T10:03:25.894Z,268.58
2019-04-22T10:06:27.869Z,130.74
2019-04-22T10:07:27.254Z,131.74
2019-04-22T10:08:41.145Z,137.88
2019-04-22T10:09:51.750Z,282.51
2019-04-22T10:10:37.984Z,299.11
2019-04-22T10:12:36.525Z,89.53
2019-04-22T10:13:45.136Z,264.46
2019-04-22T10:15:25.784Z,226.49
2019-04-22T10:16:37.130Z,161.71
2019-04-22T10:17:39.668Z,276.31
2019-04-22T10:18:42.017Z,245.01
2019-04-22T10:19:39.305Z,142.74
2019-04-22T10:21:35.310Z,154.76
2019-04-22T10:22:39.354Z,147.00
2019-04-22T10:23:39.272Z,73.69
2019-04-22T10:24:31.954Z,294.48
2019-04-22T10:25:35.397Z,84.45
2019-04-22T10:26:40.935Z,109.84
2019-04-22T10:27:25.898Z,80.11
2019-04-22T10:28:32.260Z,25.94
2019-04-22T10:29:43.455Z,98.02
2019-04-22T10:30:43.903Z,150.11
2019-04-22T10:31:39.818Z,90.27
2019-04-22T10:32:38.071Z,129.79
2019-04-22T10:33:27.127Z,217.45
2019-04-22T10:34:23.258Z,114.72
2019-04-22T10:35:17.280Z,130.75
2019-04-22T10:36:13.029Z,307.45
2019-04-22T10:37:16.283Z,158.32
2019-04-22T10:38:12.349Z,131.64
2019-04-22T10:39:12.671Z,127.36
2019-04-22T10:40:13.404Z,119.53
2019-04-22T10:41:12.400Z,36.93
2019-04-22T10:42:11.672Z,1.86
2019-04-22T10:43:11.696Z,122.10
2019-04-22T10:44:12.909Z,247.74
2019-04-22T10:45:12.366Z,174.53
2019-04-22T10:46:12.161Z,346.79
2019-04-22T10:47:11.914Z,342.62
2019-04-22T10:48:12.390Z,154.87
2019-04-22T10:49:12.708Z,247.90
2019-04-22T10:50:12.285Z,129.57
2019-04-22T10:51:12.698Z,119.81
2019-04-22T10:52:12.916Z,64.81
2019-04-22T10:53:11.670Z,106.46
2019-04-22T10:54:11.692Z,255.09
2019-04-22T10:55:11.743Z,211.24
2019-04-22T10:56:12.679Z,167.62
2019-04-22T10:57:11.704Z,295.90
2019-04-22T10:58:12.811Z,115.60
2019-04-22T10:59:11.684Z,293.81
2019-04-22T11:00:11.708Z,299.95
2019-04-22T11:01:11.687Z,174.22
2019-04-22T11:02:11.790Z,267.58
2019-04-22T11:03:12.077Z,273.80
2019-04-22T11:04:13.131Z,213.32
2019-04-22T11:05:12.252Z,131.66
2019-04-22T11:06:11.722Z,140.04
2019-04-22T11:07:13.197Z,130.27
2019-04-22T11:08:22.705Z,54.65
2019-04-22T11:09:12.446Z,93.42
2019-04-22T11:10:32.359Z,243.60
2019-04-22T11:11:26.214Z,113.98
2019-04-22T11:12:16.790Z,33.77
2019-04-22T11:13:11.713Z,347.57
2019-04-22T11:14:12.863Z,14.23
2019-04-22T11:15:11.812Z,132.98
2019-04-22T11:16:11.780Z,131.08
2019-04-22T11:17:11.699Z,110.44
2019-04-22T11:18:11.731Z,114.81
2019-04-22T11:19:11.905Z,113.63
2019-04-22T11:20:11.721Z,123.72
2019-04-22T11:21:11.720Z,273.85
2019-04-22T11:22:20.029Z,268.62
2019-04-22T11:23:11.704Z,288.25
2019-04-22T11:24:12.614Z,309.42
2019-04-22T11:25:11.950Z,216.80
2019-04-22T11:26:12.220Z,154.14
2019-04-22T11:27:12.637Z,147.35
2019-04-22T11:28:11.818Z,123.88
2019-04-22T11:29:12.059Z,206.75
2019-04-22T11:30:13.394Z,228.52
2019-04-22T11:31:12.479Z,75.34
2019-04-22T11:32:12.921Z,329.05
2019-04-22T11:33:12.076Z,263.91
2019-04-22T11:34:13.007Z,108.99
2019-04-22T11:35:11.946Z,141.75
2019-04-22T11:36:11.758Z,158.60
2019-04-22T11:37:12.270Z,203.78
2019-04-22T11:38:12.907Z,114.67
2019-04-22T11:39:13.589Z,94.47
2019-04-22T11:40:18.921Z,83.78
2019-04-22T11:41:12.637Z,81.41
2019-04-22T11:42:12.104Z,108.55
2019-04-22T11:43:12.406Z,146.74
2019-04-22T11:44:11.739Z,121.70
2019-04-22T11:45:13.112Z,243.70
2019-04-22T11:46:11.739Z,195.89
2019-04-22T11:47:11.900Z,113.51
2019-04-22T11:48:13.167Z,123.74
2019-04-22T11:49:12.126Z,130.03
2019-04-22T11:50:12.181Z,273.18
2019-04-22T11:51:11.773Z,244.32
2019-04-22T11:52:14.437Z,346.90
2019-04-22T11:53:13.020Z,266.82
2019-04-22T11:54:12.545Z,150.11
2019-04-22T11:55:12.856Z,164.77
2019-04-22T11:56:13.008Z,131.93
2019-04-22T11:57:12.852Z,201.00
2019-04-22T11:58:12.901Z,278.47
2019-04-22T11:59:12.913Z,246.04
2019-04-22T12:00:12.676Z,111.44
2019-04-22T12:01:12.777Z,182.39
2019-04-22T12:02:14.428Z,145.96
2019-04-22T12:03:12.667Z,125.25
2019-04-22T12:04:12.072Z,65.60
2019-04-22T12:05:12.022Z,141.91
2019-04-22T12:06:11.769Z,131.88
2019-04-22T12:07:12.828Z,101.47
2019-04-22T12:08:13.103Z,107.85
2019-04-22T12:09:12.135Z,124.97
2019-04-22T12:10:19.236Z,93.64
2019-04-22T12:11:11.760Z,351.54
2019-04-22T12:12:11.998Z,267.91
2019-04-22T12:13:12.267Z,232.74
2019-04-22T12:14:11.856Z,303.04
2019-04-22T12:15:12.712Z,119.55
2019-04-22T12:16:11.797Z,306.27
2019-04-22T12:17:11.801Z,147.56
2019-04-22T12:18:13.014Z,263.83
2019-04-22T12:19:13.028Z,209.04
2019-04-22T12:20:14.051Z,20.66
2019-04-22T12:21:13.166Z,78.51
2019-04-22T12:22:13.185Z,118.83
2019-04-22T12:23:12.726Z,111.51
2019-04-22T12:24:13.060Z,134.51
2019-04-22T12:25:12.472Z,167.42
2019-04-22T12:26:15.025Z,129.15
2019-04-22T12:27:11.794Z,166.82
2019-04-22T12:28:12.992Z,354.62
2019-04-22T12:29:13.178Z,164.78
2019-04-22T12:30:11.800Z,131.22
2019-04-22T12:31:13.357Z,104.67
2019-04-22T12:32:11.800Z,132.83
2019-04-22T12:33:14.546Z,125.32
2019-04-22T12:34:13.202Z,63.47
2019-04-22T12:35:11.799Z,117.64
2019-04-22T12:36:12.833Z,132.13
2019-04-22T12:37:14.905Z,128.13
2019-04-22T12:38:14.319Z,129.82
2019-04-22T12:39:11.817Z,127.41
2019-04-22T12:40:13.075Z,132.42
2019-04-22T12:41:12.596Z,42.70
2019-04-22T12:42:13.066Z,186.43
2019-04-22T12:43:12.847Z,99.30
2019-04-22T12:44:11.824Z,114.49
2019-04-22T12:45:12.170Z,110.23
2019-04-22T12:46:12.166Z,176.36
2019-04-22T12:47:13.048Z,199.45
2019-04-22T12:48:12.823Z,102.36
2019-04-22T12:49:12.166Z,107.47
2019-04-22T12:50:17.810Z,84.60
2019-04-22T12:51:13.183Z,83.94
2019-04-22T12:52:23.419Z,222.37
2019-04-22T12:53:16.703Z,101.59
2019-04-22T12:54:13.138Z,240.67
2019-04-22T12:55:12.056Z,115.59
2019-04-22T12:56:12.697Z,156.40
2019-04-22T12:57:12.342Z,102.68
2019-04-22T12:58:11.940Z,100.14
2019-04-22T12:59:11.860Z,135.17
2019-04-22T13:00:13.459Z,141.52
2019-04-22T13:01:12.839Z,139.22
2019-04-22T13:02:13.376Z,180.48
2019-04-22T13:03:11.865Z,147.00
2019-04-22T13:04:14.184Z,132.22
2019-04-22T13:05:12.450Z,104.58
2019-04-22T13:06:12.039Z,160.08
2019-04-22T13:07:11.937Z,83.88
2019-04-22T13:08:11.862Z,168.28
2019-04-22T13:09:12.663Z,332.46
2019-04-22T13:10:11.897Z,131.35
2019-04-22T13:11:14.452Z,135.53
2019-04-22T13:12:13.140Z,128.99
2019-04-22T13:13:13.218Z,112.72
2019-04-22T13:14:12.738Z,135.87
2019-04-22T13:15:11.882Z,134.59
2019-04-22T13:16:13.385Z,157.00
2019-04-22T13:17:12.275Z,233.15
2019-04-22T13:18:20.788Z,157.78
2019-04-22T13:19:15.241Z,232.04
2019-04-22T13:20:15.088Z,210.19
2019-04-22T13:21:13.105Z,165.56
2019-04-22T13:22:12.551Z,79.78
2019-04-22T13:23:11.888Z,128.80
2019-04-22T13:24:13.220Z,354.68
2019-04-22T13:25:12.435Z,112.49
2019-04-22T13:26:12.771Z,273.64
2019-04-22T13:27:12.973Z,236.26
2019-04-22T13:28:13.202Z,193.28
2019-04-22T13:29:12.878Z,207.38
2019-04-22T13:30:12.462Z,131.40
2019-04-22T13:31:11.922Z,130.52
2019-04-22T13:32:13.199Z,110.48
2019-04-22T13:33:12.629Z,129.82
2019-04-22T13:35:12.819Z,215.73
2019-04-22T13:36:12.068Z,281.48
2019-04-22T13:37:12.810Z,285.72
2019-04-22T13:38:12.967Z,90.17
2019-04-22T13:39:13.165Z,86.03
2019-04-22T13:40:12.781Z,151.65
2019-04-22T13:41:26.742Z,146.70
2019-04-22T13:42:16.181Z,121.19
2019-04-22T13:43:13.168Z,144.42
2019-04-22T13:44:12.744Z,98.30
2019-04-22T13:45:11.927Z,154.66
2019-04-22T13:46:12.477Z,292.26
2019-04-22T13:47:28.410Z,335.49
2019-04-22T13:48:33.581Z,271.31
2019-04-22T13:49:40.686Z,314.61
2019-04-22T13:52:45.148Z,149.57
2019-04-22T13:53:44.746Z,303.74
2019-04-22T13:54:48.627Z,325.62
2019-04-22T13:55:40.870Z,295.40
2019-04-22T13:56:32.831Z,272.49
2019-04-22T13:57:26.162Z,91.75
2019-04-22T13:58:24.312Z,156.20
2019-04-22T13:59:23.043Z,142.94
2019-04-22T14:00:13.532Z,143.53
2019-04-22T14:01:12.726Z,194.99
2019-04-22T14:02:12.769Z,274.24
2019-04-22T14:03:12.875Z,135.90
2019-04-22T14:04:12.449Z,83.00
2019-04-22T14:05:12.859Z,337.84
2019-04-22T14:06:13.185Z,356.04
2019-04-22T14:07:12.642Z,354.19
2019-04-22T14:08:12.651Z,24.94
2019-04-22T14:09:13.566Z,314.60
2019-04-22T14:10:12.221Z,268.39
2019-04-22T14:11:21.542Z,158.29
2019-04-22T14:12:13.782Z,145.36
2019-04-22T14:13:12.218Z,191.04
2019-04-22T14:14:12.742Z,259.04
2019-04-22T14:15:11.964Z,138.75
2019-04-22T14:16:13.280Z,143.60
2019-04-22T14:17:13.118Z,78.04
2019-04-22T14:18:12.898Z,3.63
2019-04-22T14:19:12.031Z,193.24
2019-04-22T14:20:13.129Z,115.61
2019-04-22T14:21:12.513Z,97.43
2019-04-22T14:22:11.992Z,178.86
2019-04-22T14:23:13.646Z,211.55
2019-04-22T14:24:13.797Z,151.81
2019-04-22T14:25:12.559Z,157.32
2019-04-22T14:26:13.357Z,128.87
2019-04-22T14:27:25.572Z,285.09
2019-04-22T14:28:16.938Z,266.13
2019-04-22T14:29:13.390Z,219.16
2019-04-22T14:30:12.566Z,169.34
2019-04-22T14:31:12.758Z,179.71
2019-04-22T14:33:12.267Z,217.93
2019-04-22T14:34:13.368Z,177.87
2019-04-22T14:35:13.246Z,77.62
2019-04-22T14:36:11.986Z,344.74
2019-04-22T14:37:12.102Z,121.48
2019-04-22T14:38:12.405Z,185.94
2019-04-22T14:39:12.346Z,153.52
2019-04-22T14:40:13.605Z,115.18
2019-04-22T14:41:30.532Z,75.21
2019-04-22T14:43:24.731Z,180.00
2019-04-22T14:44:23.302Z,154.43
2019-04-22T14:44:24.523Z,148.18
2019-04-22T14:45:41.550Z,111.81
2019-04-22T14:46:29.834Z,270.67
2019-04-22T14:47:26.524Z,283.21
2019-04-22T14:48:41.904Z,196.50
2019-04-22T14:49:28.835Z,243.61
2019-04-22T14:51:31.916Z,273.22
2019-04-22T14:52:30.692Z,351.47
2019-04-22T14:53:30.838Z,338.62
2019-04-22T14:54:26.469Z,180.00
2019-04-22T14:55:18.978Z,180.00
2019-04-22T14:56:12.802Z,180.16